Time;durP1;ratioP1;P1;durP2;ratioP2;P2;SDS_P1;SDS_P2;PMS_P1;PMS_P2;Temp;Humidity;BMP_temperature;BMP_pressure;BME280_temperature;BME280_humidity;BME280_pressure;Samples;Min_cycle;Max_cycle;Signal;HPM_P1;HPM_P2
2022/05/12 00:00:00;;;;;;;;;;;;;;;17.34;100.00;98561.88;5029050;28;20093;-40
2022/05/12 00:02:25;;;;;;;;;;;;;;;17.07;100.00;98573.16;5026397;28;19928;-43
2022/05/12 00:04:50;;;;;;;;;;;;;;;16.84;100.00;98579.03;5030139;28;19921;-42
2022/05/12 00:07:16;;;;;;;;;;;;;;;17.73;100.00;98586.16;5025544;28;19921;-41
2022/05/12 00:09:41;;;;;;;;;;;;;;;18.21;100.00;98578.53;5029447;28;19921;-42
2022/05/12 00:12:06;;;;;;;;;;;;;;;18.50;100.00;98581.69;5010474;28;19924;-41
2022/05/12 00:14:32;;;;;;;;;;;;;;;18.85;100.00;98583.56;5025362;28;20380;-42
2022/05/12 00:16:57;;;;;;;;;;;;;;;18.99;100.00;98595.59;5028556;28;19920;-42
2022/05/12 00:19:23;;;;;;;;;;;;;;;19.34;100.00;98589.53;5024366;28;20437;-42
2022/05/12 00:21:49;;;;;;;;;;;;;;;19.34;100.00;98592.16;5024269;28;20457;-42
2022/05/12 00:24:16;;;;;;;;;;;;;;;19.28;100.00;98592.63;5025114;28;20019;-42
2022/05/12 00:26:42;;;;;;;;;;;;;;;19.02;100.00;98584.91;5028118;28;20325;-42
2022/05/12 00:29:07;;;;;;;;;;;;;;;19.70;100.00;98596.41;5022904;28;20026;-41
2022/05/12 00:31:34;;;;;;;;;;;;;;;19.12;100.00;98621.63;5022986;28;20718;-42
2022/05/12 00:33:59;;;;;;;;;;;;;;;19.12;100.00;98621.63;5023480;28;20403;-42
2022/05/12 00:36:24;;;;;;;;;;;;;;;19.86;100.00;98632.66;5024396;28;20012;-42
2022/05/12 00:38:49;;;;;;;;;;;;;;;19.73;100.00;98618.84;5026602;28;19925;-41
2022/05/12 00:41:15;;;;;;;;;;;;;;;19.83;100.00;98619.84;5023514;28;20468;-43
2022/05/12 00:43:50;;;;;;;;;;;;;;;20.03;100.00;98615.72;5033983;28;20441;-44
2022/05/12 00:46:23;;;;;;;;;;;;;;;19.96;100.00;98614.50;5031276;28;19925;-42
2022/05/12 00:48:48;;;;;;;;;;;;;;;19.47;100.00;98611.19;5006950;28;19921;-43
2022/05/12 00:51:17;;;;;;;;;;;;;;;20.09;100.00;98617.81;5023052;28;19920;-42
2022/05/12 00:53:43;;;;;;;;;;;;;;;19.53;100.00;98617.75;5025781;28;19929;-42
2022/05/12 00:56:11;;;;;;;;;;;;;;;19.94;100.00;98613.81;5026716;28;20390;-43
2022/05/12 00:58:36;;;;;;;;;;;;;;;19.35;100.00;98631.22;5008702;28;19921;-42
2022/05/12 01:01:03;;;;;;;;;;;;;;;19.62;100.00;98630.94;5025283;28;19925;-42
2022/05/12 01:03:28;;;;;;;;;;;;;;;20.19;100.00;98629.25;5026395;28;19917;-41
2022/05/12 01:05:54;;;;;;;;;;;;;;;18.97;100.00;98634.84;5010436;28;19970;-43
2022/05/12 01:08:19;;;;;;;;;;;;;;;19.61;100.00;98639.72;5026157;28;20008;-42
2022/05/12 01:10:45;;;;;;;;;;;;;;;18.96;100.00;98646.22;5002275;28;20015;-42
2022/05/12 01:13:11;;;;;;;;;;;;;;;18.91;100.00;98644.91;5023487;28;20011;-42
2022/05/12 01:15:36;;;;;;;;;;;;;;;19.09;100.00;98659.25;5021086;28;19921;-42
2022/05/12 01:18:02;;;;;;;;;;;;;;;18.10;100.00;98647.03;5021393;28;19982;-42
2022/05/12 01:20:27;;;;;;;;;;;;;;;17.87;100.00;98647.75;5023913;28;19964;-43
2022/05/12 01:23:00;;;;;;;;;;;;;;;17.79;100.00;98666.50;5007451;28;19929;-43
2022/05/12 01:25:27;;;;;;;;;;;;;;;18.19;100.00;98663.81;5003548;28;19931;-42
2022/05/12 01:27:52;;;;;;;;;;;;;;;17.67;100.00;98668.13;5026051;28;20035;-42
2022/05/12 01:30:18;;;;;;;;;;;;;;;17.17;100.00;98669.66;5026940;28;19921;-43
2022/05/12 01:32:44;;;;;;;;;;;;;;;16.97;100.00;98683.97;5022195;28;19920;-42
2022/05/12 01:35:09;;;;;;;;;;;;;;;17.20;100.00;98679.91;5026895;28;19916;-42
2022/05/12 01:37:39;;;;;;;;;;;;;;;17.04;100.00;98695.66;5006734;28;19978;-42
2022/05/12 01:40:04;;;;;;;;;;;;;;;17.23;100.00;98703.09;5008048;28;20382;-42
2022/05/12 01:42:30;;;;;;;;;;;;;;;16.63;100.00;98695.63;5022769;28;20131;-41
2022/05/12 01:44:55;;;;;;;;;;;;;;;16.81;100.00;98709.25;5025407;28;20413;-41
2022/05/12 01:47:20;;;;;;;;;;;;;;;16.35;100.00;98707.66;5027622;28;20673;-41
2022/05/12 01:49:48;;;;;;;;;;;;;;;16.21;100.00;98713.69;5012770;28;20438;-41
2022/05/12 01:52:13;;;;;;;;;;;;;;;16.57;100.00;98717.59;5025577;28;20455;-44
2022/05/12 01:54:38;;;;;;;;;;;;;;;16.17;100.00;98740.81;5025415;28;19920;-41
2022/05/12 01:57:03;;;;;;;;;;;;;;;16.12;100.00;98748.00;5022258;28;19925;-42
2022/05/12 01:59:29;;;;;;;;;;;;;;;15.63;100.00;98750.84;5024234;28;19932;-41
2022/05/12 02:01:54;;;;;;;;;;;;;;;15.84;100.00;98749.63;5027201;28;19925;-41
2022/05/12 02:04:19;;;;;;;;;;;;;;;16.08;100.00;98754.34;5025800;28;20015;-41
2022/05/12 02:06:45;;;;;;;;;;;;;;;16.23;100.00;98761.22;5023802;28;19920;-43
2022/05/12 02:09:10;;;;;;;;;;;;;;;16.62;100.00;98767.56;5023312;28;19953;-41
2022/05/12 02:11:36;;;;;;;;;;;;;;;16.16;100.00;98759.91;5027630;28;20385;-42
2022/05/12 02:14:01;;;;;;;;;;;;;;;15.92;100.00;98771.72;5025162;28;19953;-42
2022/05/12 02:16:26;;;;;;;;;;;;;;;15.81;100.00;98780.97;5024093;28;20003;-42
2022/05/12 02:18:52;;;;;;;;;;;;;;;15.89;100.00;98781.34;5025304;28;20636;-42
2022/05/12 02:21:17;;;;;;;;;;;;;;;16.06;100.00;98785.59;5025948;28;19980;-41
2022/05/12 02:23:42;;;;;;;;;;;;;;;15.88;100.00;98787.47;5021633;28;19968;-41
2022/05/12 02:26:08;;;;;;;;;;;;;;;15.74;100.00;98789.22;5025614;28;20027;-41
2022/05/12 02:28:33;;;;;;;;;;;;;;;15.40;100.00;98799.66;5024683;28;19920;-41
2022/05/12 02:30:58;;;;;;;;;;;;;;;16.05;100.00;98798.66;5023349;28;19932;-42
2022/05/12 02:33:24;;;;;;;;;;;;;;;15.93;100.00;98807.16;5023174;28;19921;-41
2022/05/12 02:35:49;;;;;;;;;;;;;;;15.36;100.00;98821.50;5027517;28;19921;-42
2022/05/12 02:38:14;;;;;;;;;;;;;;;15.33;100.00;98821.69;5022710;28;20282;-41
2022/05/12 02:40:40;;;;;;;;;;;;;;;15.72;100.00;98828.22;5024632;28;19921;-42
2022/05/12 02:43:23;;;;;;;;;;;;;;;15.47;100.00;98834.72;5025857;28;20499;-41
2022/05/12 02:45:52;;;;;;;;;;;;;;;16.17;100.00;98836.06;5024226;28;20040;-41
2022/05/12 02:48:18;;;;;;;;;;;;;;;15.93;100.00;98840.94;5023526;28;20819;-41
2022/05/12 02:50:43;;;;;;;;;;;;;;;15.63;100.00;98845.13;5005869;28;19928;-41
2022/05/12 02:53:09;;;;;;;;;;;;;;;15.71;100.00;98847.31;5007578;28;19956;-41
2022/05/12 02:55:34;;;;;;;;;;;;;;;16.12;100.00;98841.53;5026920;28;20575;-41
2022/05/12 02:57:59;;;;;;;;;;;;;;;16.67;100.00;98850.47;5003718;28;19920;-41
2022/05/12 03:00:24;;;;;;;;;;;;;;;16.43;100.00;98852.78;5024452;28;19921;-41
2022/05/12 03:02:49;;;;;;;;;;;;;;;16.41;100.00;98862.41;5022613;28;19986;-41
2022/05/12 03:05:15;;;;;;;;;;;;;;;16.15;100.00;98867.38;5026953;28;19947;-41
2022/05/12 03:07:40;;;;;;;;;;;;;;;16.23;100.00;98869.50;5027525;28;19963;-41
2022/05/12 03:10:06;;;;;;;;;;;;;;;16.08;100.00;98866.03;5023372;28;19929;-41
2022/05/12 03:12:32;;;;;;;;;;;;;;;16.15;100.00;98869.97;5007927;28;19971;-41
2022/05/12 03:14:57;;;;;;;;;;;;;;;16.14;100.00;98880.44;5029752;28;19963;-41
2022/05/12 03:17:22;;;;;;;;;;;;;;;15.97;100.00;98886.59;5036034;28;19955;-41
2022/05/12 03:19:48;;;;;;;;;;;;;;;15.85;100.00;98894.13;5031565;28;19925;-41
2022/05/12 03:22:13;;;;;;;;;;;;;;;16.51;100.00;98890.41;5023686;28;19928;-41
2022/05/12 03:24:39;;;;;;;;;;;;;;;16.17;100.00;98893.25;5024955;28;20101;-41
2022/05/12 03:27:04;;;;;;;;;;;;;;;16.76;100.00;98885.50;5029720;28;19921;-41
2022/05/12 03:29:29;;;;;;;;;;;;;;;16.35;100.00;98896.56;5021424;28;19921;-41
2022/05/12 03:31:54;;;;;;;;;;;;;;;16.59;100.00;98894.31;5021709;28;20047;-41
2022/05/12 03:34:20;;;;;;;;;;;;;;;16.36;100.00;98895.66;5021466;28;20037;-41
2022/05/12 03:36:45;;;;;;;;;;;;;;;16.25;100.00;98902.28;5028538;28;20019;-41
2022/05/12 03:39:10;;;;;;;;;;;;;;;16.14;100.00;98902.03;5024993;28;20015;-41
2022/05/12 03:41:35;;;;;;;;;;;;;;;16.20;100.00;98906.91;5025094;28;20325;-41
2022/05/12 03:46:44;;;;;;;;;;;;;;;16.90;100.00;98912.41;5027933;28;19927;-41
2022/05/12 03:49:09;;;;;;;;;;;;;;;16.74;100.00;98914.22;5033102;28;20285;-42
2022/05/12 03:51:35;;;;;;;;;;;;;;;17.09;100.00;98917.34;5033872;28;20866;-43
2022/05/12 03:54:00;;;;;;;;;;;;;;;16.92;100.00;98920.09;5035904;28;20712;-41
2022/05/12 03:56:26;;;;;;;;;;;;;;;17.19;100.00;98922.00;5025504;28;19922;-41
2022/05/12 03:58:51;;;;;;;;;;;;;;;17.06;100.00;98921.88;5026013;28;19920;-46
2022/05/12 04:01:16;;;;;;;;;;;;;;;17.54;100.00;98928.50;5023629;28;19923;-46
2022/05/12 04:03:41;;;;;;;;;;;;;;;17.49;100.00;98929.69;5030496;28;20135;-46
2022/05/12 04:06:07;;;;;;;;;;;;;;;17.31;100.00;98926.44;5033712;28;19920;-46
2022/05/12 04:08:32;;;;;;;;;;;;;;;17.46;100.00;98929.91;5036686;28;19924;-46
2022/05/12 04:10:57;;;;;;;;;;;;;;;17.70;100.00;98928.38;5031107;28;19977;-46
2022/05/12 04:13:23;;;;;;;;;;;;;;;17.28;100.00;98931.84;5028223;28;19920;-45
2022/05/12 04:15:48;;;;;;;;;;;;;;;17.32;100.00;98938.53;5028234;28;20207;-45
2022/05/12 04:18:14;;;;;;;;;;;;;;;17.19;100.00;98948.03;5032050;28;19921;-45
2022/05/12 04:20:39;;;;;;;;;;;;;;;17.21;100.00;98951.38;5030982;28;19932;-45
2022/05/12 04:23:04;;;;;;;;;;;;;;;17.59;100.00;98943.84;5027944;28;20025;-45
2022/05/12 04:25:29;;;;;;;;;;;;;;;17.54;100.00;98954.53;5027742;28;20494;-46
2022/05/12 04:27:55;;;;;;;;;;;;;;;16.76;100.00;98966.13;5028717;28;19930;-46
2022/05/12 04:30:25;;;;;;;;;;;;;;;17.12;100.00;98963.16;5033381;28;19925;-46
2022/05/12 04:32:51;;;;;;;;;;;;;;;17.50;100.00;98962.63;5028752;28;19974;-45
2022/05/12 04:35:16;;;;;;;;;;;;;;;17.38;100.00;98968.56;5027907;28;19925;-45
2022/05/12 04:37:41;;;;;;;;;;;;;;;17.56;100.00;98970.03;5031195;28;19920;-46
2022/05/12 04:40:08;;;;;;;;;;;;;;;17.34;100.00;98973.97;5031417;28;19956;-46
2022/05/12 04:42:33;;;;;;;;;;;;;;;16.85;100.00;98976.84;5032740;28;20259;-46
2022/05/12 04:44:58;;;;;;;;;;;;;;;17.74;100.00;98983.72;5033316;28;20052;-46
2022/05/12 04:47:24;;;;;;;;;;;;;;;17.76;100.00;98987.88;5037898;28;19916;-46
2022/05/12 04:49:50;;;;;;;;;;;;;;;17.53;100.00;98994.50;5040952;28;19917;-46
2022/05/12 04:52:15;;;;;;;;;;;;;;;17.83;100.00;98990.97;5035872;28;19960;-46
2022/05/12 04:54:41;;;;;;;;;;;;;;;17.75;100.00;98988.00;5032725;28;20078;-46
2022/05/12 04:57:06;;;;;;;;;;;;;;;18.04;100.00;98994.03;5030450;28;19928;-46
2022/05/12 04:59:31;;;;;;;;;;;;;;;17.71;100.00;99002.13;5033917;28;19920;-46
2022/05/12 05:01:57;;;;;;;;;;;;;;;17.92;100.00;99000.84;5027597;28;19967;-46
2022/05/12 05:04:22;;;;;;;;;;;;;;;17.66;100.00;99009.41;5031474;28;19924;-46
2022/05/12 05:06:47;;;;;;;;;;;;;;;17.54;100.00;99004.00;5034247;28;20016;-46
2022/05/12 05:09:13;;;;;;;;;;;;;;;18.08;100.00;99010.31;5029602;28;19924;-46
2022/05/12 05:11:38;;;;;;;;;;;;;;;18.56;100.00;99008.09;5021206;28;19948;-46
2022/05/12 05:14:04;;;;;;;;;;;;;;;18.31;100.00;99009.69;5038504;28;19922;-46
2022/05/12 05:16:29;;;;;;;;;;;;;;;18.45;100.00;99015.78;5030992;28;19963;-46
2022/05/12 05:18:54;;;;;;;;;;;;;;;17.86;100.00;99024.69;5036745;28;19913;-46
2022/05/12 05:21:19;;;;;;;;;;;;;;;18.06;100.00;99033.00;5009230;28;20015;-46
2022/05/12 05:23:45;;;;;;;;;;;;;;;18.51;100.00;99033.66;5029999;28;20002;-46
2022/05/12 05:26:10;;;;;;;;;;;;;;;18.32;100.00;99034.00;5034110;28;19944;-46
2022/05/12 05:28:36;;;;;;;;;;;;;;;18.35;100.00;99039.84;5031209;28;20003;-46
2022/05/12 05:31:02;;;;;;;;;;;;;;;18.10;100.00;99044.94;5030922;28;19928;-46
2022/05/12 05:33:27;;;;;;;;;;;;;;;17.91;100.00;99046.06;5012983;28;20344;-45
2022/05/12 05:35:52;;;;;;;;;;;;;;;19.20;100.00;99045.69;5030334;28;19927;-45
2022/05/12 05:38:17;;;;;;;;;;;;;;;18.81;100.00;99052.56;5032961;28;19963;-45
2022/05/12 05:40:43;;;;;;;;;;;;;;;18.76;100.00;99053.78;5027649;28;19921;-45
2022/05/12 05:43:08;;;;;;;;;;;;;;;19.06;100.00;99061.41;5031825;28;19920;-45
2022/05/12 05:45:33;;;;;;;;;;;;;;;19.11;100.00;99064.56;5031321;28;19916;-45
2022/05/12 05:48:01;;;;;;;;;;;;;;;18.94;100.00;99067.44;5029103;28;20005;-45
2022/05/12 05:50:27;;;;;;;;;;;;;;;18.48;100.00;99078.19;5014691;28;20461;-45
2022/05/12 05:55:36;;;;;;;;;;;;;;;18.56;100.00;99083.75;5031529;28;19923;-44
2022/05/12 05:58:03;;;;;;;;;;;;;;;18.92;100.00;99091.00;5033861;28;19920;-44
2022/05/12 06:00:28;;;;;;;;;;;;;;;18.90;100.00;99094.66;5013987;28;19920;-44
2022/05/12 06:02:54;;;;;;;;;;;;;;;18.85;100.00;99096.75;5029912;28;19952;-44
2022/05/12 06:05:19;;;;;;;;;;;;;;;18.93;100.00;99095.31;5030215;28;19924;-44
2022/05/12 06:07:44;;;;;;;;;;;;;;;18.24;100.00;99099.63;5030182;28;20950;-44
2022/05/12 06:10:10;;;;;;;;;;;;;;;19.47;100.00;99088.31;5026427;28;19928;-44
2022/05/12 06:12:35;;;;;;;;;;;;;;;18.68;100.00;99103.00;5030278;28;19960;-44
2022/05/12 06:15:01;;;;;;;;;;;;;;;18.94;100.00;99114.41;5027284;28;20399;-44
2022/05/12 06:17:26;;;;;;;;;;;;;;;19.61;100.00;99107.34;5012749;28;19998;-44
2022/05/12 06:19:51;;;;;;;;;;;;;;;19.23;100.00;99113.34;5025136;28;19957;-44
2022/05/12 06:22:20;;;;;;;;;;;;;;;18.85;100.00;99109.78;5028825;28;19921;-44
2022/05/12 06:24:47;;;;;;;;;;;;;;;19.35;100.00;99098.63;5025507;28;19927;-44
2022/05/12 06:27:12;;;;;;;;;;;;;;;19.48;100.00;99114.34;5026487;28;19939;-44
2022/05/12 06:29:37;;;;;;;;;;;;;;;19.58;100.00;99110.16;5027418;28;19916;-44
2022/05/12 06:32:06;;;;;;;;;;;;;;;19.61;100.00;99103.88;5027819;28;19998;-44
2022/05/12 06:34:32;;;;;;;;;;;;;;;20.34;100.00;99115.47;5011400;28;19921;-44
2022/05/12 06:36:59;;;;;;;;;;;;;;;19.28;100.00;99120.88;5026413;28;19975;-44
2022/05/12 06:39:24;;;;;;;;;;;;;;;20.36;100.00;99117.00;5029725;28;19924;-44
2022/05/12 06:41:50;;;;;;;;;;;;;;;20.89;100.00;99114.16;5024608;28;20353;-44
2022/05/12 06:44:15;;;;;;;;;;;;;;;21.24;100.00;99108.94;5023996;28;19928;-43
2022/05/12 06:46:42;;;;;;;;;;;;;;;21.50;100.00;99117.50;5030839;28;19917;-44
2022/05/12 06:49:08;;;;;;;;;;;;;;;21.62;100.00;99118.38;5027339;28;20023;-44
2022/05/12 06:51:34;;;;;;;;;;;;;;;19.41;100.00;99139.19;5012955;28;20762;-44
2022/05/12 06:53:59;;;;;;;;;;;;;;;19.40;100.00;99135.72;5012484;28;19928;-44
2022/05/12 06:56:25;;;;;;;;;;;;;;;20.87;100.00;99132.59;5023387;28;19970;-44
2022/05/12 06:58:51;;;;;;;;;;;;;;;19.75;100.00;99137.81;5029153;28;19920;-44
2022/05/12 07:01:16;;;;;;;;;;;;;;;21.44;100.00;99130.22;5025229;28;20054;-44
2022/05/12 07:03:42;;;;;;;;;;;;;;;21.40;100.00;99137.47;5024090;28;19916;-44
2022/05/12 07:06:07;;;;;;;;;;;;;;;20.71;100.00;99139.88;5032576;28;19960;-44
2022/05/12 07:08:36;;;;;;;;;;;;;;;20.50;100.00;99159.69;5027504;28;19925;-44
2022/05/12 07:11:01;;;;;;;;;;;;;;;22.08;100.00;99135.81;5035065;28;19921;-44
2022/05/12 07:13:26;;;;;;;;;;;;;;;21.52;100.00;99133.09;5036023;28;19917;-44
2022/05/12 07:15:52;;;;;;;;;;;;;;;20.11;100.00;99157.13;5033286;28;19917;-44
2022/05/12 07:18:17;;;;;;;;;;;;;;;19.13;100.00;99159.25;5033303;28;19917;-44
2022/05/12 07:26:53;;;;;;;;;;;;;;;20.48;100.00;99163.25;5034412;28;19948;-44
2022/05/12 07:28:59;;;;;;;;;;;;;;;21.36;100.00;99154.34;5024004;28;19913;-43
2022/05/12 07:31:24;;;;;;;;;;;;;;;21.83;100.00;99157.84;5030643;28;20243;-44
2022/05/12 07:33:49;;;;;;;;;;;;;;;21.36;100.00;99164.00;5014448;28;19921;-44
2022/05/12 07:36:23;;;;;;;;;;;;;;;20.49;100.00;99174.56;5033797;28;19916;-43
2022/05/12 07:38:48;;;;;;;;;;;;;;;22.06;100.00;99158.69;5032549;28;19916;-44
2022/05/12 07:41:13;;;;;;;;;;;;;;;23.06;100.00;99150.88;5035021;28;19917;-44
2022/05/12 07:43:39;;;;;;;;;;;;;;;22.80;98.76;99152.09;5033437;28;19955;-44
2022/05/12 07:46:06;;;;;;;;;;;;;;;20.92;100.00;99175.94;5015573;28;19917;-43
2022/05/12 07:48:31;;;;;;;;;;;;;;;19.92;100.00;99182.88;5032396;28;20004;-43
2022/05/12 07:50:56;;;;;;;;;;;;;;;20.08;100.00;99185.28;5028083;28;20305;-43
2022/05/12 07:53:21;;;;;;;;;;;;;;;20.79;100.00;99184.66;5035798;28;20318;-43
2022/05/12 07:55:48;;;;;;;;;;;;;;;21.70;100.00;99165.78;5037207;28;19917;-43
2022/05/12 07:58:14;;;;;;;;;;;;;;;21.25;100.00;99168.22;5033292;28;20439;-43
2022/05/12 08:00:40;;;;;;;;;;;;;;;20.96;100.00;99177.38;5033648;28;20003;-44
2022/05/12 08:03:06;;;;;;;;;;;;;;;20.73;100.00;99187.69;5033653;28;19921;-43
2022/05/12 08:05:31;;;;;;;;;;;;;;;21.24;100.00;99189.31;5032412;28;20091;-43
2022/05/12 08:07:56;;;;;;;;;;;;;;;21.05;100.00;99197.66;5031650;28;20565;-43
2022/05/12 08:10:22;;;;;;;;;;;;;;;22.05;100.00;99187.66;5031359;28;19952;-43
2022/05/12 08:12:48;;;;;;;;;;;;;;;20.01;100.00;99206.59;5032244;28;19916;-43
2022/05/12 08:15:13;;;;;;;;;;;;;;;20.90;100.00;99199.59;5034341;28;19959;-43
2022/05/12 08:17:39;;;;;;;;;;;;;;;21.89;100.00;99188.00;5032864;28;20027;-43
2022/05/12 08:20:05;;;;;;;;;;;;;;;21.64;100.00;99189.81;5011679;28;19987;-43
2022/05/12 08:22:30;;;;;;;;;;;;;;;21.11;100.00;99202.44;5008913;28;20278;-43
2022/05/12 08:24:56;;;;;;;;;;;;;;;21.82;100.00;99186.78;5032545;28;20433;-43
2022/05/12 08:27:21;;;;;;;;;;;;;;;22.75;97.81;99186.59;5036162;28;19916;-43
2022/05/12 08:29:46;;;;;;;;;;;;;;;23.52;95.94;99181.25;5031514;28;19959;-43
2022/05/12 08:32:12;;;;;;;;;;;;;;;22.98;99.48;99184.75;5033118;28;20319;-43
2022/05/12 08:34:37;;;;;;;;;;;;;;;22.79;97.44;99188.03;5035302;28;19916;-43
2022/05/12 08:37:03;;;;;;;;;;;;;;;22.81;99.28;99196.63;5030576;28;19932;-43
2022/05/12 08:39:28;;;;;;;;;;;;;;;23.05;97.10;99200.91;5026592;28;19917;-43
2022/05/12 08:42:03;;;;;;;;;;;;;;;21.42;100.00;99208.94;5026021;28;19921;-43
2022/05/12 08:44:28;;;;;;;;;;;;;;;20.01;100.00;99211.00;5013755;28;19967;-43
2022/05/12 08:47:01;;;;;;;;;;;;;;;21.42;100.00;99208.13;5011609;28;20867;-43
2022/05/12 08:49:28;;;;;;;;;;;;;;;23.34;95.98;99202.00;5034872;28;19970;-43
2022/05/12 08:52:06;;;;;;;;;;;;;;;22.92;100.00;99209.75;5038112;28;20487;-43
2022/05/12 08:54:31;;;;;;;;;;;;;;;21.31;97.78;99225.41;5034183;28;19923;-43
2022/05/12 08:57:00;;;;;;;;;;;;;;;20.94;100.00;99232.47;5016985;28;19916;-44
2022/05/12 08:59:25;;;;;;;;;;;;;;;20.87;100.00;99229.47;5015442;28;19999;-43
2022/05/12 09:01:59;;;;;;;;;;;;;;;22.10;100.00;99217.84;5033818;28;19946;-43
2022/05/12 09:04:37;;;;;;;;;;;;;;;22.51;100.00;99215.59;5015582;28;19920;-43
2022/05/12 09:07:02;;;;;;;;;;;;;;;20.88;100.00;99225.88;5015094;28;20552;-43
2022/05/12 09:09:32;;;;;;;;;;;;;;;22.08;97.90;99209.25;5035014;28;19921;-43
2022/05/12 09:12:02;;;;;;;;;;;;;;;22.78;89.72;99217.84;5010746;28;19931;-43
2022/05/12 09:14:48;;;;;;;;;;;;;;;22.31;88.59;99214.56;5014747;28;19967;-43
2022/05/12 09:17:17;;;;;;;;;;;;;;;24.20;86.40;99213.28;4999889;28;19924;-43
2022/05/12 09:19:42;;;;;;;;;;;;;;;22.81;91.62;99217.63;5012553;28;19927;-43
2022/05/12 09:22:08;;;;;;;;;;;;;;;22.33;85.84;99207.41;5030989;28;20442;-43
2022/05/12 09:24:33;;;;;;;;;;;;;;;22.47;87.02;99215.03;5012355;28;20386;-43
2022/05/12 09:27:08;;;;;;;;;;;;;;;21.16;100.00;99226.53;5027942;28;19917;-43
2022/05/12 09:29:41;;;;;;;;;;;;;;;23.67;92.24;99204.59;5028231;28;20396;-43
2022/05/12 09:32:07;;;;;;;;;;;;;;;23.69;84.73;99200.88;5031287;28;20509;-43
2022/05/12 09:34:32;;;;;;;;;;;;;;;21.90;95.75;99213.28;5026774;28;19925;-43
2022/05/12 09:37:15;;;;;;;;;;;;;;;21.26;98.36;99216.22;5027444;28;19917;-43
2022/05/12 09:39:47;;;;;;;;;;;;;;;21.22;100.00;99212.16;5027426;28;19917;-43
2022/05/12 09:42:15;;;;;;;;;;;;;;;22.05;85.91;99201.59;5010896;28;19916;-43
2022/05/12 09:44:42;;;;;;;;;;;;;;;23.10;86.57;99199.56;5007673;28;19917;-43
2022/05/12 09:47:11;;;;;;;;;;;;;;;22.97;79.72;99199.69;5004778;28;20012;-43
2022/05/12 09:49:38;;;;;;;;;;;;;;;22.84;84.20;99213.94;5026233;28;19913;-43
2022/05/12 09:52:23;;;;;;;;;;;;;;;24.27;81.50;99196.94;5026129;28;19921;-43
2022/05/12 09:54:49;;;;;;;;;;;;;;;23.74;75.90;99187.34;5023770;28;19917;-43
2022/05/12 09:57:15;;;;;;;;;;;;;;;23.14;86.41;99203.59;5005351;28;20528;-43
2022/05/12 09:59:41;;;;;;;;;;;;;;;21.98;93.37;99213.50;5010387;28;19928;-43
2022/05/12 10:02:11;;;;;;;;;;;;;;;22.14;91.29;99203.50;5012655;28;20329;-43
2022/05/12 10:10:22;;;;;;;;;;;;;;;24.49;69.12;99196.78;5009872;28;20424;-43
2022/05/12 10:12:54;;;;;;;;;;;;;;;23.81;76.02;99196.41;5031701;28;19981;-43
2022/05/12 10:15:28;;;;;;;;;;;;;;;24.56;73.62;99191.81;5010723;28;19943;-43
2022/05/12 10:17:56;;;;;;;;;;;;;;;23.34;81.70;99194.09;5010108;28;19928;-43
2022/05/12 10:20:23;;;;;;;;;;;;;;;23.18;82.35;99191.06;5024186;28;19948;-43
2022/05/12 10:22:48;;;;;;;;;;;;;;;23.22;84.32;99189.00;5005257;28;20008;-43
2022/05/12 10:25:28;;;;;;;;;;;;;;;25.38;73.30;99178.38;5022800;28;19951;-43
2022/05/12 10:27:56;;;;;;;;;;;;;;;25.37;62.91;99176.72;5029729;28;19917;-43
2022/05/12 10:30:34;;;;;;;;;;;;;;;24.26;66.53;99187.38;5024528;28;20019;-43
2022/05/12 10:33:05;;;;;;;;;;;;;;;23.85;68.39;99186.47;5029046;28;19957;-43
2022/05/12 10:35:35;;;;;;;;;;;;;;;24.72;65.75;99173.69;5030850;28;19917;-43
2022/05/12 10:38:06;;;;;;;;;;;;;;;23.88;71.40;99186.19;5006800;28;19916;-43
2022/05/12 10:40:37;;;;;;;;;;;;;;;25.50;66.01;99165.03;5022121;28;20020;-43
2022/05/12 10:43:12;;;;;;;;;;;;;;;26.38;57.79;99169.13;5010333;28;19924;-43
2022/05/12 10:45:42;;;;;;;;;;;;;;;26.35;52.29;99155.41;5013872;28;19963;-43
2022/05/12 10:48:07;;;;;;;;;;;;;;;26.30;58.42;99166.41;5010882;28;19921;-43
2022/05/12 10:50:51;;;;;;;;;;;;;;;25.28;53.24;99168.81;5033616;28;19928;-42
2022/05/12 10:53:22;;;;;;;;;;;;;;;27.84;50.92;99154.88;5031523;28;20008;-43
2022/05/12 10:56:08;;;;;;;;;;;;;;;27.46;46.39;99145.50;5033271;28;20378;-43
2022/05/12 10:58:42;;;;;;;;;;;;;;;25.50;48.71;99157.13;5033086;28;19925;-43
2022/05/12 11:01:16;;;;;;;;;;;;;;;26.21;57.30;99154.09;5034278;28;19917;-43
2022/05/12 11:03:57;;;;;;;;;;;;;;;24.97;59.34;99158.34;5009202;28;20008;-43
2022/05/12 11:06:24;;;;;;;;;;;;;;;25.98;61.42;99148.31;5009795;28;20394;-43
2022/05/12 11:08:55;;;;;;;;;;;;;;;26.33;50.60;99141.53;5015282;28;20711;-43
2022/05/12 11:11:40;;;;;;;;;;;;;;;27.93;47.69;99137.25;5016947;28;19970;-43
2022/05/12 11:14:24;;;;;;;;;;;;;;;26.91;46.74;99141.19;5016128;28;19944;-43
2022/05/12 11:17:00;;;;;;;;;;;;;;;26.87;49.30;99142.50;5031812;28;20298;-43
2022/05/12 11:19:26;;;;;;;;;;;;;;;26.83;54.66;99149.06;5013779;28;19924;-43
2022/05/12 11:21:51;;;;;;;;;;;;;;;26.24;50.08;99148.50;5030181;28;19948;-43
2022/05/12 11:24:22;;;;;;;;;;;;;;;24.62;54.53;99159.69;5028235;28;19923;-43
2022/05/12 11:27:05;;;;;;;;;;;;;;;26.28;52.36;99139.31;5030150;28;19924;-43
2022/05/12 11:29:48;;;;;;;;;;;;;;;27.63;49.31;99133.22;5031589;28;20409;-43
2022/05/12 11:32:31;;;;;;;;;;;;;;;27.23;49.39;99138.06;5033585;28;19967;-43
2022/05/12 11:34:59;;;;;;;;;;;;;;;26.73;49.20;99141.19;5030180;28;19917;-43
2022/05/12 11:37:28;;;;;;;;;;;;;;;25.53;49.84;99143.69;5010131;28;19990;-43
2022/05/12 11:39:54;;;;;;;;;;;;;;;25.36;47.90;99143.44;5028318;28;19921;-43
2022/05/12 11:42:20;;;;;;;;;;;;;;;25.11;54.66;99139.53;5030590;28;19963;-43
2022/05/12 11:45:05;;;;;;;;;;;;;;;25.60;54.65;99140.34;5021787;28;20015;-43
2022/05/12 11:47:49;;;;;;;;;;;;;;;24.15;53.09;99133.91;5008840;28;20360;-43
2022/05/12 11:50:27;;;;;;;;;;;;;;;24.92;52.76;99135.06;5022980;28;20148;-43
2022/05/12 11:52:58;;;;;;;;;;;;;;;26.25;47.79;99118.47;5022681;28;19928;-43
2022/05/12 11:55:27;;;;;;;;;;;;;;;27.23;47.43;99130.13;5023540;28;19979;-43
2022/05/12 11:58:00;;;;;;;;;;;;;;;26.87;45.43;99129.28;5013949;28;19917;-43
2022/05/12 12:00:34;;;;;;;;;;;;;;;26.90;44.60;99123.69;5011514;28;19943;-43
2022/05/12 12:03:20;;;;;;;;;;;;;;;27.79;44.04;99117.44;5035020;28;19917;-43
2022/05/12 12:05:45;;;;;;;;;;;;;;;26.52;46.06;99119.44;5005419;28;19917;-43
2022/05/12 12:08:10;;;;;;;;;;;;;;;27.16;47.63;99117.63;5033909;28;19970;-43
2022/05/12 12:10:40;;;;;;;;;;;;;;;26.79;49.00;99119.44;5032244;28;19921;-43
2022/05/12 12:13:14;;;;;;;;;;;;;;;26.69;43.21;99105.47;5010553;28;20031;-43
2022/05/12 12:15:41;;;;;;;;;;;;;;;24.69;51.29;99129.22;5033895;28;19917;-43
2022/05/12 12:18:19;;;;;;;;;;;;;;;23.97;54.27;99123.16;5031335;28;20456;-43
2022/05/12 12:20:45;;;;;;;;;;;;;;;25.16;53.79;99110.13;5025931;28;20984;-43
2022/05/12 12:23:27;;;;;;;;;;;;;;;25.23;59.73;99114.72;5029080;28;19920;-43
2022/05/12 12:25:57;;;;;;;;;;;;;;;24.07;55.90;99122.34;5018980;28;19991;-43
2022/05/12 12:28:22;;;;;;;;;;;;;;;25.31;55.90;99119.28;5008352;28;19921;-43
2022/05/12 12:30:47;;;;;;;;;;;;;;;24.58;63.75;99116.97;5027104;28;20758;-43
2022/05/12 12:33:20;;;;;;;;;;;;;;;25.00;62.32;99114.13;5026870;28;19976;-44
2022/05/12 12:35:50;;;;;;;;;;;;;;;25.96;53.71;99108.06;5012398;28;19923;-43
2022/05/12 12:38:35;;;;;;;;;;;;;;;26.79;46.61;99108.03;5033324;28;20083;-43
2022/05/12 12:41:01;;;;;;;;;;;;;;;24.46;54.10;99117.22;5032655;28;19924;-44
2022/05/12 12:43:27;;;;;;;;;;;;;;;23.70;56.33;99110.53;5030273;28;20005;-44
2022/05/12 12:45:53;;;;;;;;;;;;;;;23.58;60.41;99116.78;5010372;28;19962;-43
2022/05/12 12:48:39;;;;;;;;;;;;;;;25.45;56.16;99103.03;5011144;28;19964;-43
2022/05/12 12:51:04;;;;;;;;;;;;;;;25.78;50.26;99106.16;5031517;28;19928;-43
2022/05/12 12:56:32;;;;;;;;;;;;;;;26.41;52.68;99099.34;5033447;28;20463;-44
2022/05/12 12:59:02;;;;;;;;;;;;;;;25.67;50.49;99108.94;5032070;28;19970;-43
2022/05/12 13:01:46;;;;;;;;;;;;;;;24.73;55.94;99113.97;5011499;28;19996;-44